Airport View

Enter AWOS ICAO identifier for current METAR.

ex. KFNL

KFHU 261158Z AUTO 00000KT 10SM CLR 19/M01 A3011 RMK AO2 SLP116 T01851013 10250 20175 52009

26 Jun 2019 12:47

Frequency: 119.675

Phone: 520-459-7316

Other Area AWOS: KOLS - KDUG - KTUS - KDMA

TAF KFHU 261000Z 2610/2716 VRB06KT 9999 FEW150 QNH3008INS BECMG 2614/2615 19012KT 9999 FEW120 QNH3014INS BECMG 2617/2618 20012G18KT 9999 FEW120 QNH3005INS TEMPO 2620/2703 20015G25KT 520009 BECMG 2703/2704 22009KT 9999 FEW090 QNH3011INS BECMG 2714/2715 18012KT 9999 SCT100 QNH3018INS TX35/2622Z TN16/2612Z